Weather at Domodedovo International Airport

Public forecast

Using degrees Celsius for public forecast. Weather courtesy of forecast.io.

Current aviation weather report (METAR) for Domodedovo International Airport

2024/05/22 04:00 (retrieved 26 minutes ago)

UUDD 220400Z 06003MPS CAVOK 15/06 Q1021 R32L/CLRD60 NOSIG

Closest aviation forecast (TAF) to Domodedovo International Airport

Forecast is more than 12 hours old.

Closest forecast is Sliač Airport, 800.2 nm (1,481.9 km) WSW.

2024/05/21 06:30 (retrieved 22 hours ago)

TAF TAF LZSL 210430Z 2106/2118 VRB03KT 9999 BKN040 BECMG 2110/2112 14012KT